sensor_id;sensor_type;location;lat;lon;timestamp;pressure;altitude;pressure_sealevel;temperature;humidity
75913;BME280;64592;52.168;21.040;2023-07-29T00:04:30;99617.50;;;17.33;100.00
75913;BME280;64592;52.168;21.040;2023-07-29T00:09:33;99608.13;;;17.27;100.00
75913;BME280;64592;52.168;21.040;2023-07-29T00:14:35;99622.59;;;17.28;100.00
75913;BME280;64592;52.168;21.040;2023-07-29T00:19:36;99628.41;;;17.25;100.00
75913;BME280;64592;52.168;21.040;2023-07-29T00:24:40;99634.53;;;17.27;100.00
75913;BME280;64592;52.168;21.040;2023-07-29T00:29:42;99644.94;;;17.23;100.00
75913;BME280;64592;52.168;21.040;2023-07-29T00:34:43;99644.75;;;17.25;100.00
75913;BME280;64592;52.168;21.040;2023-07-29T00:39:46;99654.66;;;17.26;100.00
75913;BME280;64592;52.168;21.040;2023-07-29T00:44:48;99653.25;;;17.30;100.00
75913;BME280;64592;52.168;21.040;2023-07-29T00:49:51;99650.88;;;17.27;100.00
75913;BME280;64592;52.168;21.040;2023-07-29T00:54:54;99655.13;;;17.29;100.00
75913;BME280;64592;52.168;21.040;2023-07-29T00:59:56;99652.91;;;17.33;100.00
75913;BME280;64592;52.168;21.040;2023-07-29T01:04:58;99642.66;;;17.35;100.00
75913;BME280;64592;52.168;21.040;2023-07-29T01:10:04;99649.81;;;17.36;100.00
75913;BME280;64592;52.168;21.040;2023-07-29T01:15:12;99651.88;;;17.34;100.00
75913;BME280;64592;52.168;21.040;2023-07-29T01:20:16;99654.78;;;17.32;100.00
75913;BME280;64592;52.168;21.040;2023-07-29T01:25:21;99663.59;;;17.34;100.00
75913;BME280;64592;52.168;21.040;2023-07-29T01:30:28;99665.16;;;17.37;100.00
75913;BME280;64592;52.168;21.040;2023-07-29T01:35:36;99661.94;;;17.33;100.00
75913;BME280;64592;52.168;21.040;2023-07-29T01:40:44;99677.06;;;17.36;100.00
75913;BME280;64592;52.168;21.040;2023-07-29T01:45:47;99666.16;;;17.36;100.00
75913;BME280;64592;52.168;21.040;2023-07-29T01:50:48;99672.00;;;17.33;100.00
75913;BME280;64592;52.168;21.040;2023-07-29T01:55:51;99677.28;;;17.26;100.00
75913;BME280;64592;52.168;21.040;2023-07-29T02:00:53;99676.25;;;17.19;100.00
75913;BME280;64592;52.168;21.040;2023-07-29T02:05:55;99686.16;;;17.12;100.00
75913;BME280;64592;52.168;21.040;2023-07-29T02:10:58;99680.53;;;17.14;100.00
75913;BME280;64592;52.168;21.040;2023-07-29T02:15:59;99695.38;;;17.11;100.00
75913;BME280;64592;52.168;21.040;2023-07-29T02:21:01;99697.41;;;17.09;100.00
75913;BME280;64592;52.168;21.040;2023-07-29T02:26:04;99697.41;;;17.09;100.00
75913;BME280;64592;52.168;21.040;2023-07-29T02:31:14;99697.91;;;17.04;100.00
75913;BME280;64592;52.168;21.040;2023-07-29T02:36:17;99698.63;;;16.98;100.00
75913;BME280;64592;52.168;21.040;2023-07-29T02:41:20;99697.44;;;16.93;100.00
75913;BME280;64592;52.168;21.040;2023-07-29T02:46:22;99696.97;;;16.89;100.00
75913;BME280;64592;52.168;21.040;2023-07-29T02:51:23;99696.44;;;16.86;100.00
75913;BME280;64592;52.168;21.040;2023-07-29T02:56:26;99711.91;;;16.85;100.00
75913;BME280;64592;52.168;21.040;2023-07-29T03:01:28;99719.59;;;16.82;100.00
75913;BME280;64592;52.168;21.040;2023-07-29T03:06:30;99716.03;;;16.81;100.00
75913;BME280;64592;52.168;21.040;2023-07-29T03:11:33;99722.66;;;16.79;100.00
75913;BME280;64592;52.168;21.040;2023-07-29T03:16:35;99725.91;;;16.74;100.00
75913;BME280;64592;52.168;21.040;2023-07-29T03:21:36;99736.09;;;16.64;100.00
75913;BME280;64592;52.168;21.040;2023-07-29T03:26:39;99729.59;;;16.57;100.00
75913;BME280;64592;52.168;21.040;2023-07-29T03:31:41;99723.81;;;16.52;100.00
75913;BME280;64592;52.168;21.040;2023-07-29T03:36:43;99726.88;;;16.49;100.00
75913;BME280;64592;52.168;21.040;2023-07-29T03:41:48;99734.34;;;16.47;100.00
75913;BME280;64592;52.168;21.040;2023-07-29T03:46:49;99741.47;;;16.48;100.00
75913;BME280;64592;52.168;21.040;2023-07-29T03:51:51;99740.13;;;16.44;100.00
75913;BME280;64592;52.168;21.040;2023-07-29T03:56:54;99751.34;;;16.41;100.00
75913;BME280;64592;52.168;21.040;2023-07-29T04:01:56;99744.72;;;16.43;100.00
75913;BME280;64592;52.168;21.040;2023-07-29T04:06:58;99742.84;;;16.36;100.00
75913;BME280;64592;52.168;21.040;2023-07-29T04:12:01;99760.50;;;16.40;100.00
75913;BME280;64592;52.168;21.040;2023-07-29T04:17:03;99763.41;;;16.38;100.00
75913;BME280;64592;52.168;21.040;2023-07-29T04:22:05;99758.47;;;16.34;100.00
75913;BME280;64592;52.168;21.040;2023-07-29T04:27:08;99774.09;;;16.31;100.00
75913;BME280;64592;52.168;21.040;2023-07-29T04:32:10;99782.25;;;16.31;100.00
75913;BME280;64592;52.168;21.040;2023-07-29T04:37:11;99780.94;;;16.36;100.00
75913;BME280;64592;52.168;21.040;2023-07-29T04:42:14;99792.66;;;16.36;100.00
75913;BME280;64592;52.168;21.040;2023-07-29T04:47:16;99808.63;;;16.39;100.00
75913;BME280;64592;52.168;21.040;2023-07-29T04:52:18;99807.13;;;16.37;100.00
75913;BME280;64592;52.168;21.040;2023-07-29T04:57:21;99810.19;;;16.42;100.00
75913;BME280;64592;52.168;21.040;2023-07-29T05:02:23;99814.25;;;16.46;100.00
75913;BME280;64592;52.168;21.040;2023-07-29T05:07:24;99815.97;;;16.55;100.00
75913;BME280;64592;52.168;21.040;2023-07-29T05:12:28;99826.38;;;16.59;100.00
75913;BME280;64592;52.168;21.040;2023-07-29T05:17:30;99817.75;;;16.64;100.00
75913;BME280;64592;52.168;21.040;2023-07-29T05:22:32;99820.47;;;16.72;100.00
75913;BME280;64592;52.168;21.040;2023-07-29T05:27:34;99817.94;;;16.79;100.00
75913;BME280;64592;52.168;21.040;2023-07-29T05:32:36;99824.25;;;16.87;100.00
75913;BME280;64592;52.168;21.040;2023-07-29T05:37:38;99827.13;;;16.94;100.00
75913;BME280;64592;52.168;21.040;2023-07-29T05:42:42;99823.56;;;17.01;100.00
75913;BME280;64592;52.168;21.040;2023-07-29T05:47:44;99819.13;;;17.08;100.00
75913;BME280;64592;52.168;21.040;2023-07-29T05:52:46;99823.91;;;17.15;100.00
75913;BME280;64592;52.168;21.040;2023-07-29T05:57:49;99836.81;;;17.21;100.00
75913;BME280;64592;52.168;21.040;2023-07-29T06:02:50;99841.09;;;17.23;100.00
75913;BME280;64592;52.168;21.040;2023-07-29T06:07:52;99846.88;;;17.28;100.00
75913;BME280;64592;52.168;21.040;2023-07-29T06:12:55;99858.13;;;17.33;100.00
75913;BME280;64592;52.168;21.040;2023-07-29T06:17:57;99855.56;;;17.40;100.00
75913;BME280;64592;52.168;21.040;2023-07-29T06:22:58;99866.78;;;17.45;100.00
75913;BME280;64592;52.168;21.040;2023-07-29T06:28:01;99869.50;;;17.53;100.00
75913;BME280;64592;52.168;21.040;2023-07-29T06:33:03;99884.00;;;17.54;97.54
75913;BME280;64592;52.168;21.040;2023-07-29T06:38:05;99888.91;;;17.58;97.78
75913;BME280;64592;52.168;21.040;2023-07-29T06:43:08;99892.03;;;17.63;97.78
75913;BME280;64592;52.168;21.040;2023-07-29T06:48:10;99888.78;;;17.68;97.91
75913;BME280;64592;52.168;21.040;2023-07-29T06:53:12;99879.03;;;17.73;97.99
75913;BME280;64592;52.168;21.040;2023-07-29T06:58:15;99893.19;;;17.77;96.38
75913;BME280;64592;52.168;21.040;2023-07-29T07:03:16;99888.22;;;17.80;95.40
75913;BME280;64592;52.168;21.040;2023-07-29T07:08:18;99886.50;;;17.88;96.39
75913;BME280;64592;52.168;21.040;2023-07-29T07:13:21;99893.34;;;17.92;95.16
75913;BME280;64592;52.168;21.040;2023-07-29T07:18:23;99890.06;;;17.96;94.63
75913;BME280;64592;52.168;21.040;2023-07-29T07:23:24;99881.00;;;18.04;93.92
75913;BME280;64592;52.168;21.040;2023-07-29T07:28:27;99882.69;;;18.13;93.96
75913;BME280;64592;52.168;21.040;2023-07-29T07:33:29;99878.25;;;18.20;93.13
75913;BME280;64592;52.168;21.040;2023-07-29T07:38:32;99866.91;;;18.31;94.17
75913;BME280;64592;52.168;21.040;2023-07-29T07:43:35;99876.94;;;18.39;92.46
75913;BME280;64592;52.168;21.040;2023-07-29T07:48:38;99879.81;;;18.45;92.03
75913;BME280;64592;52.168;21.040;2023-07-29T07:53:40;99884.38;;;18.53;91.48
75913;BME280;64592;52.168;21.040;2023-07-29T07:58:43;99892.41;;;18.54;89.73
75913;BME280;64592;52.168;21.040;2023-07-29T08:03:45;99887.31;;;18.59;88.47
75913;BME280;64592;52.168;21.040;2023-07-29T08:08:47;99884.50;;;18.68;87.74
75913;BME280;64592;52.168;21.040;2023-07-29T08:13:50;99879.84;;;18.76;85.49
75913;BME280;64592;52.168;21.040;2023-07-29T08:18:52;99878.97;;;18.84;83.81
75913;BME280;64592;52.168;21.040;2023-07-29T08:23:53;99878.06;;;18.91;84.74
75913;BME280;64592;52.168;21.040;2023-07-29T08:28:56;99874.75;;;19.04;85.31
75913;BME280;64592;52.168;21.040;2023-07-29T08:33:58;99866.78;;;19.17;84.07
75913;BME280;64592;52.168;21.040;2023-07-29T08:39:00;99869.25;;;19.27;82.65
75913;BME280;64592;52.168;21.040;2023-07-29T08:44:08;99867.97;;;19.37;80.12
75913;BME280;64592;52.168;21.040;2023-07-29T08:49:11;99857.94;;;19.53;80.46
75913;BME280;64592;52.168;21.040;2023-07-29T08:54:15;99858.72;;;19.61;80.48
75913;BME280;64592;52.168;21.040;2023-07-29T08:59:19;99851.38;;;19.76;79.91
75913;BME280;64592;52.168;21.040;2023-07-29T09:04:21;99850.28;;;19.86;78.48
75913;BME280;64592;52.168;21.040;2023-07-29T09:09:24;99857.53;;;19.93;74.84
75913;BME280;64592;52.168;21.040;2023-07-29T09:14:28;99855.75;;;20.15;77.67
75913;BME280;64592;52.168;21.040;2023-07-29T09:19:33;99851.59;;;20.34;75.48
75913;BME280;64592;52.168;21.040;2023-07-29T09:24:34;99855.81;;;20.51;74.11
75913;BME280;64592;52.168;21.040;2023-07-29T09:29:38;99845.31;;;20.54;72.45
75913;BME280;64592;52.168;21.040;2023-07-29T09:34:41;99844.16;;;20.64;72.07
75913;BME280;64592;52.168;21.040;2023-07-29T09:39:45;99837.13;;;20.76;69.80
75913;BME280;64592;52.168;21.040;2023-07-29T09:44:49;99843.94;;;20.80;69.45
75913;BME280;64592;52.168;21.040;2023-07-29T09:49:52;99835.19;;;20.91;68.35
75913;BME280;64592;52.168;21.040;2023-07-29T09:54:55;99834.06;;;21.07;67.68
75913;BME280;64592;52.168;21.040;2023-07-29T09:59:58;99820.94;;;21.17;66.84
75913;BME280;64592;52.168;21.040;2023-07-29T10:05:02;99827.63;;;21.36;65.21
75913;BME280;64592;52.168;21.040;2023-07-29T10:10:06;99821.81;;;21.45;65.60
75913;BME280;64592;52.168;21.040;2023-07-29T10:15:10;99821.09;;;21.64;65.01
75913;BME280;64592;52.168;21.040;2023-07-29T10:20:12;99826.16;;;21.95;64.38
75913;BME280;64592;52.168;21.040;2023-07-29T10:25:16;99815.56;;;22.20;63.62
75913;BME280;64592;52.168;21.040;2023-07-29T10:30:19;99811.84;;;22.41;62.41
75913;BME280;64592;52.168;21.040;2023-07-29T10:35:21;99811.13;;;22.73;62.39
75913;BME280;64592;52.168;21.040;2023-07-29T10:40:22;99815.81;;;22.99;60.12
75913;BME280;64592;52.168;21.040;2023-07-29T10:45:26;99809.06;;;23.28;58.42
75913;BME280;64592;52.168;21.040;2023-07-29T10:50:27;99804.84;;;23.39;57.30
75913;BME280;64592;52.168;21.040;2023-07-29T10:55:32;99803.19;;;23.51;56.87
75913;BME280;64592;52.168;21.040;2023-07-29T11:00:35;99806.13;;;23.43;57.47
75913;BME280;64592;52.168;21.040;2023-07-29T11:05:58;99799.16;;;23.47;57.96
75913;BME280;64592;52.168;21.040;2023-07-29T11:11:07;99786.44;;;23.59;56.54
75913;BME280;64592;52.168;21.040;2023-07-29T11:16:10;99787.44;;;23.97;55.20
75913;BME280;64592;52.168;21.040;2023-07-29T11:21:17;99779.66;;;24.39;54.09
75913;BME280;64592;52.168;21.040;2023-07-29T11:26:19;99776.94;;;24.70;52.84
75913;BME280;64592;52.168;21.040;2023-07-29T11:31:22;99771.53;;;24.89;53.05
75913;BME280;64592;52.168;21.040;2023-07-29T11:36:24;99767.03;;;25.01;52.99
75913;BME280;64592;52.168;21.040;2023-07-29T11:41:26;99759.03;;;25.18;51.76
75913;BME280;64592;52.168;21.040;2023-07-29T11:46:29;99746.06;;;25.68;50.71
75913;BME280;64592;52.168;21.040;2023-07-29T11:51:30;99742.53;;;26.15;48.87
75913;BME280;64592;52.168;21.040;2023-07-29T11:56:33;99739.00;;;26.26;48.14
75913;BME280;64592;52.168;21.040;2023-07-29T12:01:36;99735.28;;;26.51;48.57
75913;BME280;64592;52.168;21.040;2023-07-29T12:06:39;99727.19;;;26.79;47.75
75913;BME280;64592;52.168;21.040;2023-07-29T12:11:41;99722.56;;;26.91;45.55
75913;BME280;64592;52.168;21.040;2023-07-29T12:16:48;99711.78;;;27.25;46.05
75913;BME280;64592;52.168;21.040;2023-07-29T12:21:52;99709.84;;;27.72;43.38
75913;BME280;64592;52.168;21.040;2023-07-29T12:26:54;99716.34;;;27.89;43.15
75913;BME280;64592;52.168;21.040;2023-07-29T12:32:01;99705.38;;;27.83;42.93
75913;BME280;64592;52.168;21.040;2023-07-29T12:37:05;99706.47;;;27.93;44.02
75913;BME280;64592;52.168;21.040;2023-07-29T12:42:06;99698.66;;;27.78;42.92
75913;BME280;64592;52.168;21.040;2023-07-29T12:47:09;99693.50;;;27.70;44.27
75913;BME280;64592;52.168;21.040;2023-07-29T12:52:12;99702.63;;;27.83;43.64
75913;BME280;64592;52.168;21.040;2023-07-29T12:57:13;99701.72;;;27.94;43.13
75913;BME280;64592;52.168;21.040;2023-07-29T13:02:16;99686.38;;;28.26;42.58
75913;BME280;64592;52.168;21.040;2023-07-29T13:07:18;99679.22;;;28.58;41.62
75913;BME280;64592;52.168;21.040;2023-07-29T13:12:20;99689.28;;;28.93;41.41
75913;BME280;64592;52.168;21.040;2023-07-29T13:17:23;99680.53;;;29.34;40.57
75913;BME280;64592;52.168;21.040;2023-07-29T13:22:25;99672.00;;;29.80;39.21
75913;BME280;64592;52.168;21.040;2023-07-29T13:27:27;99677.47;;;29.91;38.50
75913;BME280;64592;52.168;21.040;2023-07-29T13:32:30;99657.25;;;29.96;39.03
75913;BME280;64592;52.168;21.040;2023-07-29T13:37:32;99658.84;;;30.14;39.01
75913;BME280;64592;52.168;21.040;2023-07-29T13:42:33;99656.28;;;30.34;37.35
75913;BME280;64592;52.168;21.040;2023-07-29T13:47:36;99652.75;;;29.73;39.04
75913;BME280;64592;52.168;21.040;2023-07-29T13:52:38;99635.22;;;29.12;40.31
75913;BME280;64592;52.168;21.040;2023-07-29T13:57:40;99639.06;;;28.78;41.71
75913;BME280;64592;52.168;21.040;2023-07-29T14:02:43;99625.28;;;29.00;41.89
75913;BME280;64592;52.168;21.040;2023-07-29T14:07:44;99618.09;;;29.37;39.93
75913;BME280;64592;52.168;21.040;2023-07-29T14:12:46;99620.50;;;29.72;40.08
75913;BME280;64592;52.168;21.040;2023-07-29T14:17:49;99601.09;;;30.21;38.74
75913;BME280;64592;52.168;21.040;2023-07-29T14:22:51;99602.25;;;30.52;37.00
75913;BME280;64592;52.168;21.040;2023-07-29T14:27:52;99596.50;;;30.63;37.92
75913;BME280;64592;52.168;21.040;2023-07-29T14:32:55;99596.16;;;30.92;38.73
75913;BME280;64592;52.168;21.040;2023-07-29T14:37:57;99591.69;;;31.22;38.09
75913;BME280;64592;52.168;21.040;2023-07-29T14:42:59;99593.13;;;31.35;37.29
75913;BME280;64592;52.168;21.040;2023-07-29T14:48:02;99586.66;;;30.82;37.84
75913;BME280;64592;52.168;21.040;2023-07-29T14:53:04;99591.97;;;30.52;38.36
75913;BME280;64592;52.168;21.040;2023-07-29T14:58:05;99589.44;;;30.51;38.22
75913;BME280;64592;52.168;21.040;2023-07-29T15:03:09;99581.09;;;30.82;38.95
75913;BME280;64592;52.168;21.040;2023-07-29T15:08:10;99586.47;;;30.62;39.04
75913;BME280;64592;52.168;21.040;2023-07-29T15:13:12;99575.56;;;30.29;38.50
75913;BME280;64592;52.168;21.040;2023-07-29T15:18:15;99582.53;;;29.56;40.46
75913;BME280;64592;52.168;21.040;2023-07-29T15:23:17;99567.38;;;29.08;42.04
75913;BME280;64592;52.168;21.040;2023-07-29T15:28:18;99559.81;;;29.04;42.28
75913;BME280;64592;52.168;21.040;2023-07-29T15:33:21;99561.66;;;28.98;41.91
75913;BME280;64592;52.168;21.040;2023-07-29T15:38:23;99566.91;;;28.94;43.02
75913;BME280;64592;52.168;21.040;2023-07-29T15:43:25;99556.41;;;28.80;43.59
75913;BME280;64592;52.168;21.040;2023-07-29T15:48:28;99554.81;;;28.50;43.84
75913;BME280;64592;52.168;21.040;2023-07-29T15:53:29;99552.84;;;28.17;45.55
75913;BME280;64592;52.168;21.040;2023-07-29T15:58:31;99547.88;;;27.91;45.68
75913;BME280;64592;52.168;21.040;2023-07-29T16:03:34;99551.13;;;27.71;47.35
75913;BME280;64592;52.168;21.040;2023-07-29T16:08:36;99537.31;;;27.48;48.33
75913;BME280;64592;52.168;21.040;2023-07-29T16:13:38;99541.56;;;27.27;48.58
75913;BME280;64592;52.168;21.040;2023-07-29T16:18:41;99534.28;;;27.10;49.00
75913;BME280;64592;52.168;21.040;2023-07-29T16:23:43;99532.59;;;27.09;49.12
75913;BME280;64592;52.168;21.040;2023-07-29T16:28:44;99531.03;;;27.01;49.73
75913;BME280;64592;52.168;21.040;2023-07-29T16:33:47;99517.44;;;26.99;47.07
75913;BME280;64592;52.168;21.040;2023-07-29T16:38:50;99515.75;;;26.98;49.25
75913;BME280;64592;52.168;21.040;2023-07-29T16:43:51;99508.28;;;26.87;49.99
75913;BME280;64592;52.168;21.040;2023-07-29T16:48:55;99497.13;;;26.82;50.42
75913;BME280;64592;52.168;21.040;2023-07-29T16:53:57;99499.63;;;26.72;50.61
75913;BME280;64592;52.168;21.040;2023-07-29T16:58:59;99496.28;;;26.58;50.55
75913;BME280;64592;52.168;21.040;2023-07-29T17:04:02;99502.63;;;26.47;51.08
75913;BME280;64592;52.168;21.040;2023-07-29T17:09:13;99493.75;;;26.34;51.70
75913;BME280;64592;52.168;21.040;2023-07-29T17:14:15;99491.31;;;26.25;52.19
75913;BME280;64592;52.168;21.040;2023-07-29T17:19:19;99498.84;;;26.18;52.53
75913;BME280;64592;52.168;21.040;2023-07-29T17:24:22;99495.34;;;26.11;53.07
75913;BME280;64592;52.168;21.040;2023-07-29T17:29:24;99500.75;;;26.06;53.41
75913;BME280;64592;52.168;21.040;2023-07-29T17:34:26;99491.84;;;25.93;54.37
75913;BME280;64592;52.168;21.040;2023-07-29T17:39:29;99491.81;;;25.81;54.96
75913;BME280;64592;52.168;21.040;2023-07-29T17:44:31;99488.63;;;25.66;55.52
75913;BME280;64592;52.168;21.040;2023-07-29T17:49:33;99482.66;;;25.50;56.25
75913;BME280;64592;52.168;21.040;2023-07-29T17:54:36;99479.00;;;25.38;56.80
75913;BME280;64592;52.168;21.040;2023-07-29T17:59:39;99470.06;;;25.25;57.24
75913;BME280;64592;52.168;21.040;2023-07-29T18:04:41;99468.47;;;25.17;57.48
75913;BME280;64592;52.168;21.040;2023-07-29T18:09:45;99480.88;;;25.08;57.80
75913;BME280;64592;52.168;21.040;2023-07-29T18:14:48;99465.13;;;24.97;58.38
75913;BME280;64592;52.168;21.040;2023-07-29T18:19:49;99472.59;;;24.90;59.04
75913;BME280;64592;52.168;21.040;2023-07-29T18:24:52;99471.22;;;24.81;59.04
75913;BME280;64592;52.168;21.040;2023-07-29T18:29:54;99473.22;;;24.73;60.16
75913;BME280;64592;52.168;21.040;2023-07-29T18:34:56;99485.59;;;24.64;60.16
75913;BME280;64592;52.168;21.040;2023-07-29T18:39:59;99481.09;;;24.52;61.01
75913;BME280;64592;52.168;21.040;2023-07-29T18:45:00;99492.63;;;24.42;61.80
75913;BME280;64592;52.168;21.040;2023-07-29T18:50:02;99489.31;;;24.33;62.14
75913;BME280;64592;52.168;21.040;2023-07-29T18:55:06;99482.38;;;24.24;62.62
75913;BME280;64592;52.168;21.040;2023-07-29T19:00:09;99477.13;;;24.16;63.65
75913;BME280;64592;52.168;21.040;2023-07-29T19:05:10;99480.56;;;24.12;63.32
75913;BME280;64592;52.168;21.040;2023-07-29T19:10:14;99468.75;;;24.05;63.91
75913;BME280;64592;52.168;21.040;2023-07-29T19:15:15;99466.28;;;23.96;64.03
75913;BME280;64592;52.168;21.040;2023-07-29T19:20:17;99472.69;;;23.90;64.78
75913;BME280;64592;52.168;21.040;2023-07-29T19:25:20;99461.72;;;23.84;64.65
75913;BME280;64592;52.168;21.040;2023-07-29T19:30:21;99467.28;;;23.77;64.90
75913;BME280;64592;52.168;21.040;2023-07-29T19:35:24;99444.69;;;23.69;64.90
75913;BME280;64592;52.168;21.040;2023-07-29T19:40:28;99446.44;;;23.63;65.17
75913;BME280;64592;52.168;21.040;2023-07-29T19:45:29;99440.72;;;23.58;65.31
75913;BME280;64592;52.168;21.040;2023-07-29T19:50:31;99445.44;;;23.51;65.65
75913;BME280;64592;52.168;21.040;2023-07-29T19:55:34;99439.09;;;23.44;65.97
75913;BME280;64592;52.168;21.040;2023-07-29T20:00:36;99445.50;;;23.38;65.50
75913;BME280;64592;52.168;21.040;2023-07-29T20:05:39;99452.09;;;23.30;66.31
75913;BME280;64592;52.168;21.040;2023-07-29T20:10:43;99452.75;;;23.26;66.39
75913;BME280;64592;52.168;21.040;2023-07-29T20:15:46;99450.44;;;23.22;66.67
75913;BME280;64592;52.168;21.040;2023-07-29T20:20:49;99444.13;;;23.15;66.94
75913;BME280;64592;52.168;21.040;2023-07-29T20:25:52;99449.44;;;23.10;67.50
75913;BME280;64592;52.168;21.040;2023-07-29T20:30:54;99438.28;;;22.99;68.38
75913;BME280;64592;52.168;21.040;2023-07-29T20:35:58;99422.25;;;22.96;68.73
75913;BME280;64592;52.168;21.040;2023-07-29T20:41:01;99426.69;;;22.90;68.89
75913;BME280;64592;52.168;21.040;2023-07-29T20:46:03;99425.19;;;22.94;68.98
75913;BME280;64592;52.168;21.040;2023-07-29T20:51:05;99426.28;;;22.87;69.19
75913;BME280;64592;52.168;21.040;2023-07-29T20:56:08;99435.19;;;22.82;69.58
75913;BME280;64592;52.168;21.040;2023-07-29T21:01:10;99474.75;;;22.81;69.90
75913;BME280;64592;52.168;21.040;2023-07-29T21:06:11;99494.00;;;22.74;70.39
75913;BME280;64592;52.168;21.040;2023-07-29T21:11:14;99510.03;;;22.71;70.63
75913;BME280;64592;52.168;21.040;2023-07-29T21:16:16;99582.16;;;22.60;70.73
75913;BME280;64592;52.168;21.040;2023-07-29T21:21:18;99593.50;;;22.17;84.46
75913;BME280;64592;52.168;21.040;2023-07-29T21:26:21;99596.66;;;21.40;91.01
75913;BME280;64592;52.168;21.040;2023-07-29T21:31:23;99596.38;;;20.94;91.80
75913;BME280;64592;52.168;21.040;2023-07-29T21:36:25;99604.09;;;20.56;92.66
75913;BME280;64592;52.168;21.040;2023-07-29T21:41:28;99599.09;;;20.38;95.56
75913;BME280;64592;52.168;21.040;2023-07-29T21:46:29;99604.13;;;20.35;97.97
75913;BME280;64592;52.168;21.040;2023-07-29T21:51:32;99597.97;;;20.33;100.00
75913;BME280;64592;52.168;21.040;2023-07-29T21:56:35;99623.59;;;20.25;97.91
75913;BME280;64592;52.168;21.040;2023-07-29T22:01:36;99637.34;;;20.32;100.00
75913;BME280;64592;52.168;21.040;2023-07-29T22:06:38;99616.13;;;20.34;100.00
75913;BME280;64592;52.168;21.040;2023-07-29T22:11:41;99576.84;;;20.27;98.33
75913;BME280;64592;52.168;21.040;2023-07-29T22:16:43;99549.22;;;20.22;98.59
75913;BME280;64592;52.168;21.040;2023-07-29T22:21:44;99538.63;;;20.12;99.49
75913;BME280;64592;52.168;21.040;2023-07-29T22:26:51;99543.47;;;20.16;100.00
75913;BME280;64592;52.168;21.040;2023-07-29T22:31:53;99528.50;;;20.12;98.64
75913;BME280;64592;52.168;21.040;2023-07-29T22:36:55;99535.50;;;20.15;100.00
75913;BME280;64592;52.168;21.040;2023-07-29T22:41:58;99508.13;;;20.15;99.46
75913;BME280;64592;52.168;21.040;2023-07-29T22:46:59;99482.94;;;19.98;97.49
75913;BME280;64592;52.168;21.040;2023-07-29T22:52:01;99457.25;;;19.99;97.94
75913;BME280;64592;52.168;21.040;2023-07-29T22:57:04;99446.84;;;19.88;96.94
75913;BME280;64592;52.168;21.040;2023-07-29T23:02:06;99452.97;;;19.90;99.14
75913;BME280;64592;52.168;21.040;2023-07-29T23:07:08;99449.19;;;19.91;97.92
75913;BME280;64592;52.168;21.040;2023-07-29T23:12:11;99445.81;;;19.89;98.16
75913;BME280;64592;52.168;21.040;2023-07-29T23:17:13;99451.66;;;19.86;97.83
75913;BME280;64592;52.168;21.040;2023-07-29T23:22:14;99433.66;;;19.70;97.95
75913;BME280;64592;52.168;21.040;2023-07-29T23:27:17;99427.34;;;19.70;98.11
75913;BME280;64592;52.168;21.040;2023-07-29T23:32:19;99422.06;;;19.68;99.02
75913;BME280;64592;52.168;21.040;2023-07-29T23:37:20;99436.97;;;19.66;99.02
75913;BME280;64592;52.168;21.040;2023-07-29T23:42:23;99449.97;;;19.64;98.73
75913;BME280;64592;52.168;21.040;2023-07-29T23:47:25;99471.59;;;19.59;98.96
75913;BME280;64592;52.168;21.040;2023-07-29T23:52:27;99472.28;;;19.61;98.61
75913;BME280;64592;52.168;21.040;2023-07-29T23:57:30;99465.47;;;19.57;99.33
